FIT weather

Fitchburg Municipal Airport
Fitchburg, Massachusetts, United States

Public forecast

Using degrees Fahrenheit for public forecast. Weather courtesy of forecast.io.

Current aviation weather report (METAR) for Fitchburg Municipal Airport

Retrieved 2019/11/21 03:52 UTC (43 minutes ago):

KFIT 210352Z AUTO 31007KT 10SM OVC065 02/M01 A3002 RMK AO2 SLP170 T00221011

Closest aviation forecast (TAF) to Fitchburg Municipal Airport

Closest forecast is Worcester Regional Airport, 18.0 nm (33.3 km) SSW. Retrieved 2019-11-21 00:27 UTC (4 hours ago):

TAF KORH 202323Z 2100/2124 34010KT P6SM -SN SCT007 OVC040 FM210200 33009KT P6SM OVC040 FM210900 32008KT P6SM SCT040 FM212100 29003KT P6SM SKC